Time;durP1;ratioP1;P1;durP2;ratioP2;P2;SDS_P1;SDS_P2;PMS_P1;PMS_P2;Temp;Humidity;BMP_temperature;BMP_pressure;BME280_temperature;BME280_humidity;BME280_pressure;Samples;Min_cycle;Max_cycle;Signal;HPM_P1;HPM_P2
2022/09/24 01:15:28;;;;;;;5.32;4.82;;;;;;;;;;5014937;28;20064;-77
2022/09/24 01:31:05;;;;;;;4.72;4.32;;;;;;;;;;4955019;28;20081;-78
2022/09/24 02:05:37;;;;;;;5.80;4.80;;;;;;;;;;4973434;28;20041;-78
2022/09/24 02:14:37;;;;;;;5.07;4.57;;;;;;;;;;4952588;29;20035;-77
2022/09/24 02:17:27;;;;;;;5.18;4.35;;;;;;;;;;4973530;28;20102;-78
2022/09/24 02:39:13;;;;;;;4.70;4.05;;;;;;;;;;4860031;29;20042;-78
2022/09/24 02:45:50;;;;;;;;;;;;;;;;;;;;;
2022/09/24 02:52:09;;;;;;;5.85;4.80;;;;;;;;;;4915549;29;20205;-78
2022/09/24 03:04:14;;;;;;;5.40;4.80;;;;;;;;;;4895525;29;20040;-78
2022/09/24 03:07:13;;;;;;;5.40;4.90;;;;;;;;;;4895852;29;20386;-78
2022/09/24 03:16:18;;;;;;;6.07;4.95;;;;;;;;;;4972373;28;20042;-78
2022/09/24 03:28:43;;;;;;;5.20;4.70;;;;;;;;;;4897714;29;20504;-77
2022/09/24 03:35:03;;;;;;;5.00;4.50;;;;;;;;;;4882821;29;20123;-77
2022/09/24 03:37:42;;;;;;;6.80;4.95;;;;;;;;;;4858429;29;20048;-77
2022/09/24 03:40:28;;;;;;;5.35;4.53;;;;;;;;;;4872952;29;20190;-78
2022/09/24 03:59:28;;;;;;;5.60;4.82;;;;;;;;;;5012756;28;20105;-77
2022/09/24 04:02:18;;;;;;;6.35;5.13;;;;;;;;;;5012785;28;20038;-77
2022/09/24 04:11:55;;;;;;;14.20;10.47;;;;;;;;;;5013024;28;20124;-78
2022/09/24 04:14:21;;;;;;;13.75;8.48;;;;;;;;;;4932934;29;20036;-77
2022/09/24 04:16:47;;;;;;;7.43;6.75;;;;;;;;;;4933113;29;20497;-77
2022/09/24 04:19:17;;;;;;;6.40;5.53;;;;;;;;;;4965012;28;20030;-78
2022/09/24 04:21:44;;;;;;;5.82;5.22;;;;;;;;;;4992879;28;20026;-77
2022/09/24 04:24:10;;;;;;;6.55;5.47;;;;;;;;;;4992864;28;20038;-78
2022/09/24 04:26:37;;;;;;;7.32;5.38;;;;;;;;;;4993003;28;20034;-78
2022/09/24 04:29:10;;;;;;;8.90;5.22;;;;;;;;;;4992814;28;20500;-77
2022/09/24 04:31:38;;;;;;;6.32;5.18;;;;;;;;;;4992984;28;20038;-77
2022/09/24 04:34:04;;;;;;;6.18;5.05;;;;;;;;;;4992689;28;20517;-77
2022/09/24 04:36:30;;;;;;;7.10;5.25;;;;;;;;;;4992824;28;20042;-77
2022/09/24 04:38:56;;;;;;;8.48;6.35;;;;;;;;;;4992745;28;20042;-78
2022/09/24 04:41:22;;;;;;;8.20;6.22;;;;;;;;;;4992832;28;20038;-78
2022/09/24 04:43:50;;;;;;;9.30;7.25;;;;;;;;;;4993001;28;20109;-78
2022/09/24 04:46:17;;;;;;;9.55;7.03;;;;;;;;;;4992723;28;20039;-78
2022/09/24 04:48:44;;;;;;;9.13;6.88;;;;;;;;;;4992719;28;20050;-78
2022/09/24 04:51:10;;;;;;;9.95;8.25;;;;;;;;;;4992540;28;20042;-77
2022/09/24 04:53:37;;;;;;;11.00;9.90;;;;;;;;;;4993006;28;20097;-78
2022/09/24 04:56:04;;;;;;;8.57;7.50;;;;;;;;;;4992639;28;20054;-77
2022/09/24 04:58:33;;;;;;;9.30;8.05;;;;;;;;;;4992639;28;20031;-77
2022/09/24 05:01:02;;;;;;;8.40;7.38;;;;;;;;;;4992587;28;20065;-78
2022/09/24 05:03:29;;;;;;;16.85;10.40;;;;;;;;;;4992830;28;20062;-77
2022/09/24 05:06:14;;;;;;;38.95;20.23;;;;;;;;;;4975247;28;20568;-78
2022/09/24 05:09:06;;;;;;;26.23;16.58;;;;;;;;;;4992659;28;20056;-78
2022/09/24 05:14:44;;;;;;;13.90;9.98;;;;;;;;;;4984586;28;20052;-78
2022/09/24 05:29:27;;;;;;;9.88;7.15;;;;;;;;;;4995575;28;20122;-78
2022/09/24 05:38:29;;;;;;;10.75;9.68;;;;;;;;;;4993613;28;20085;-79
2022/09/24 05:44:10;;;;;;;7.88;6.75;;;;;;;;;;4996121;28;20033;-78
2022/09/24 05:53:09;;;;;;;6.90;6.28;;;;;;;;;;4972447;28;20062;-79
2022/09/24 05:55:38;;;;;;;7.18;6.25;;;;;;;;;;4995470;28;20077;-79
2022/09/24 05:58:12;;;;;;;11.40;7.80;;;;;;;;;;4985737;28;20026;-79
2022/09/24 06:00:47;;;;;;;14.60;12.32;;;;;;;;;;5025738;28;20095;-79
2022/09/24 06:03:13;;;;;;;;;;;;;;;;;;5030704;28;20040;-79
2022/09/24 06:05:43;;;;;;;13.13;10.70;;;;;;;;;;5034851;28;19924;-79
2022/09/24 06:08:09;;;;;;;12.52;9.98;;;;;;;;;;5034696;28;20025;-79
2022/09/24 06:10:36;;;;;;;10.93;8.35;;;;;;;;;;5034404;28;20033;-79
2022/09/24 06:13:02;;;;;;;9.25;8.07;;;;;;;;;;5016116;28;20087;-79
2022/09/24 06:15:29;;;;;;;8.02;6.60;;;;;;;;;;5034392;28;20378;-78
2022/09/24 06:17:55;;;;;;;6.20;5.60;;;;;;;;;;5034540;28;20117;-78
2022/09/24 06:20:22;;;;;;;6.03;5.45;;;;;;;;;;5034182;28;20042;-78
2022/09/24 06:22:49;;;;;;;8.10;6.55;;;;;;;;;;5032859;28;20583;-78
2022/09/24 06:25:15;;;;;;;7.05;6.35;;;;;;;;;;5033926;28;20032;-78
2022/09/24 06:27:41;;;;;;;9.88;8.80;;;;;;;;;;5034280;28;20045;-78
2022/09/24 06:30:08;;;;;;;9.25;8.25;;;;;;;;;;5034412;28;20469;-78
2022/09/24 06:32:34;;;;;;;40.22;29.33;;;;;;;;;;5033939;28;20117;-79
2022/09/24 06:35:00;;;;;;;40.10;28.77;;;;;;;;;;5034280;28;20037;-79
2022/09/24 06:37:26;;;;;;;20.02;15.65;;;;;;;;;;5033930;28;20040;-79
2022/09/24 06:39:52;;;;;;;10.95;8.98;;;;;;;;;;5026844;28;20419;-79
2022/09/24 06:42:18;;;;;;;7.68;6.50;;;;;;;;;;5033523;28;20057;-79
2022/09/24 06:44:45;;;;;;;6.30;5.07;;;;;;;;;;5033897;28;20096;-79
2022/09/24 06:47:11;;;;;;;8.38;6.68;;;;;;;;;;5033901;28;20392;-80
2022/09/24 06:49:37;;;;;;;8.13;6.10;;;;;;;;;;5037214;28;20447;-79
2022/09/24 06:52:03;;;;;;;6.25;5.35;;;;;;;;;;5053608;28;20136;-79
2022/09/24 06:54:29;;;;;;;8.88;6.43;;;;;;;;;;5053615;28;20100;-79
2022/09/24 06:56:55;;;;;;;7.05;5.72;;;;;;;;;;5053585;28;20043;-79
2022/09/24 06:59:21;;;;;;;6.95;5.97;;;;;;;;;;5053575;28;20040;-79
2022/09/24 07:01:48;;;;;;;7.57;5.97;;;;;;;;;;5053356;28;20032;-79
2022/09/24 07:04:14;;;;;;;7.18;6.00;;;;;;;;;;5049509;28;20029;-79
2022/09/24 07:09:28;;;;;;;7.38;5.32;;;;;;;;;;5053461;28;20040;-80
2022/09/24 07:11:55;;;;;;;7.35;5.75;;;;;;;;;;5051357;28;20025;-79
2022/09/24 07:14:21;;;;;;;8.18;6.85;;;;;;;;;;5053343;28;20117;-78
2022/09/24 07:16:48;;;;;;;7.20;6.05;;;;;;;;;;5052982;28;20099;-78
2022/09/24 07:19:14;;;;;;;7.60;5.70;;;;;;;;;;5053227;28;20047;-78
2022/09/24 07:21:52;;;;;;;6.88;6.05;;;;;;;;;;5052216;28;20071;-79
2022/09/24 07:24:18;;;;;;;9.02;6.88;;;;;;;;;;5050974;28;20043;-79
2022/09/24 07:26:44;;;;;;;9.40;7.10;;;;;;;;;;5052881;28;20499;-79
2022/09/24 07:29:10;;;;;;;7.10;6.18;;;;;;;;;;5053198;28;20037;-79
2022/09/24 07:31:36;;;;;;;10.85;8.18;;;;;;;;;;5044698;28;20029;-79
2022/09/24 07:34:02;;;;;;;12.57;9.38;;;;;;;;;;5052740;28;20037;-79
2022/09/24 07:36:31;;;;;;;9.90;7.43;;;;;;;;;;5052896;28;20085;-78
2022/09/24 07:38:57;;;;;;;8.27;6.25;;;;;;;;;;5052626;28;20480;-78
2022/09/24 07:41:24;;;;;;;9.18;6.28;;;;;;;;;;5052902;28;20037;-78
2022/09/24 07:43:50;;;;;;;7.10;5.50;;;;;;;;;;5052544;28;20392;-79
2022/09/24 07:46:16;;;;;;;6.15;5.20;;;;;;;;;;5052715;28;20029;-78
2022/09/24 07:48:42;;;;;;;7.88;5.32;;;;;;;;;;5052527;28;20036;-78
2022/09/24 07:51:11;;;;;;;9.18;6.43;;;;;;;;;;5052349;28;20053;-79
2022/09/24 07:53:37;;;;;;;8.23;7.15;;;;;;;;;;5052398;28;20507;-79
2022/09/24 07:56:03;;;;;;;5.53;4.82;;;;;;;;;;5052715;28;20040;-79
2022/09/24 07:58:29;;;;;;;6.63;5.30;;;;;;;;;;5052796;28;20100;-78
2022/09/24 08:01:15;;;;;;;7.03;4.70;;;;;;;;;;5052266;28;20037;-79
2022/09/24 08:03:41;;;;;;;6.75;4.68;;;;;;;;;;5052545;28;20033;-79
2022/09/24 08:06:07;;;;;;;5.22;4.50;;;;;;;;;;5052324;28;20116;-78
2022/09/24 08:08:34;;;;;;;4.80;4.07;;;;;;;;;;5052483;28;20035;-77
2022/09/24 08:11:07;;;;;;;4.35;3.78;;;;;;;;;;5052349;28;20037;-78
2022/09/24 08:13:33;;;;;;;4.55;3.58;;;;;;;;;;5052538;28;20033;-78
2022/09/24 08:16:00;;;;;;;4.10;3.25;;;;;;;;;;5052151;28;20072;-78
2022/09/24 08:18:26;;;;;;;3.97;3.33;;;;;;;;;;5052404;28;20119;-79
2022/09/24 08:20:52;;;;;;;4.55;3.08;;;;;;;;;;5052197;28;20060;-79
2022/09/24 08:23:19;;;;;;;3.90;3.50;;;;;;;;;;5052068;28;20068;-81
2022/09/24 08:25:46;;;;;;;3.88;3.20;;;;;;;;;;5052139;28;20029;-81
2022/09/24 08:28:12;;;;;;;3.72;3.10;;;;;;;;;;5052339;28;20059;-80
2022/09/24 08:30:39;;;;;;;3.67;3.38;;;;;;;;;;5052212;28;20025;-79
2022/09/24 08:33:06;;;;;;;3.50;3.03;;;;;;;;;;5051819;28;20037;-80
2022/09/24 08:35:33;;;;;;;12.80;7.75;;;;;;;;;;5052456;28;20034;-79
2022/09/24 08:38:00;;;;;;;4.97;3.95;;;;;;;;;;5051943;28;20057;-80
2022/09/24 08:40:28;;;;;;;6.88;4.03;;;;;;;;;;5052300;28;20553;-82
2022/09/24 08:43:13;;;;;;;4.82;3.45;;;;;;;;;;5052046;28;20037;-81
2022/09/24 08:48:30;;;;;;;3.95;3.47;;;;;;;;;;5056325;28;20154;-85
2022/09/24 08:51:01;;;;;;;4.35;3.17;;;;;;;;;;5055821;28;20131;-85
2022/09/24 08:53:30;;;;;;;3.72;2.95;;;;;;;;;;5055820;28;20496;-86
2022/09/24 08:55:59;;;;;;;3.10;2.80;;;;;;;;;;5055609;28;20056;-84
2022/09/24 08:58:31;;;;;;;3.72;3.30;;;;;;;;;;5055899;28;20049;-85
2022/09/24 09:00:57;;;;;;;3.38;3.08;;;;;;;;;;5055696;28;20029;-84
2022/09/24 09:03:26;;;;;;;3.38;3.08;;;;;;;;;;5055932;28;20040;-84
2022/09/24 09:06:01;;;;;;;4.40;3.38;;;;;;;;;;5055680;28;20049;-85
2022/09/24 09:08:32;;;;;;;3.88;3.20;;;;;;;;;;5053312;28;20439;-83
2022/09/24 09:11:01;;;;;;;4.25;3.20;;;;;;;;;;5055558;28;20033;-83
2022/09/24 09:13:30;;;;;;;4.13;2.65;;;;;;;;;;5055563;28;20363;-84
2022/09/24 09:16:02;;;;;;;5.43;4.82;;;;;;;;;;5055483;28;20037;-84
2022/09/24 09:18:46;;;;;;;5.28;4.25;;;;;;;;;;5055737;28;20044;-84
2022/09/24 09:21:16;;;;;;;4.78;3.45;;;;;;;;;;5055540;28;20033;-83
2022/09/24 09:23:49;;;;;;;3.85;3.45;;;;;;;;;;5055448;28;20048;-84
2022/09/24 09:26:20;;;;;;;4.80;3.45;;;;;;;;;;5055308;28;20407;-83
2022/09/24 09:28:47;;;;;;;4.95;3.80;;;;;;;;;;5055738;28;20025;-84
2022/09/24 09:31:31;;;;;;;5.22;3.22;;;;;;;;;;5055328;28;20033;-84
2022/09/24 09:34:00;;;;;;;3.92;2.75;;;;;;;;;;5059713;28;20369;-83
2022/09/24 09:36:26;;;;;;;3.45;3.10;;;;;;;;;;5052788;28;20385;-85
2022/09/24 09:39:13;;;;;;;3.80;3.20;;;;;;;;;;5055275;28;20116;-84
2022/09/24 09:41:41;;;;;;;4.75;3.42;;;;;;;;;;5027214;28;20040;-85
2022/09/24 09:44:27;;;;;;;3.92;2.97;;;;;;;;;;5054940;28;20033;-84
2022/09/24 09:47:00;;;;;;;13.07;11.52;;;;;;;;;;5054914;28;20033;-84
2022/09/24 09:49:30;;;;;;;4.53;3.33;;;;;;;;;;5051920;28;20450;-84
2022/09/24 09:52:01;;;;;;;3.55;3.15;;;;;;;;;;5055034;28;20029;-86
2022/09/24 09:54:37;;;;;;;2.83;2.58;;;;;;;;;;5054633;28;20488;-85
2022/09/24 09:57:05;;;;;;;2.90;2.70;;;;;;;;;;5054604;28;20037;-84
2022/09/24 09:59:33;;;;;;;3.22;2.58;;;;;;;;;;5054606;28;20041;-84
2022/09/24 10:01:59;;;;;;;2.60;2.40;;;;;;;;;;5054926;28;20052;-85
2022/09/24 10:04:34;;;;;;;2.40;2.20;;;;;;;;;;5054539;28;20033;-84
2022/09/24 10:07:07;;;;;;;3.42;2.70;;;;;;;;;;5054672;28;20115;-85
2022/09/24 10:09:33;;;;;;;9.10;8.00;;;;;;;;;;5053115;28;20037;-84
2022/09/24 10:12:07;;;;;;;5.10;3.40;;;;;;;;;;5054694;28;20033;-85
2022/09/24 10:14:34;;;;;;;4.57;3.63;;;;;;;;;;5054516;28;20033;-85
2022/09/24 10:17:04;;;;;;;5.22;3.28;;;;;;;;;;5054553;28;20495;-85
2022/09/24 10:19:33;;;;;;;3.97;2.70;;;;;;;;;;5052925;28;20451;-85
2022/09/24 10:22:06;;;;;;;4.63;3.45;;;;;;;;;;5054331;28;20484;-83
2022/09/24 10:24:33;;;;;;;5.30;3.50;;;;;;;;;;5053996;28;20044;-82
2022/09/24 10:26:59;;;;;;;3.08;2.67;;;;;;;;;;5054226;28;20032;-83
2022/09/24 10:32:19;;;;;;;3.95;3.15;;;;;;;;;;5054490;28;20043;-82
2022/09/24 10:34:58;;;;;;;6.07;4.07;;;;;;;;;;5054284;28;20029;-85
2022/09/24 10:37:24;;;;;;;6.57;3.92;;;;;;;;;;5053993;28;20029;-84
2022/09/24 10:40:00;;;;;;;5.80;3.75;;;;;;;;;;5053980;28;20112;-84
2022/09/24 10:42:28;;;;;;;6.70;4.03;;;;;;;;;;5053750;28;20034;-84
2022/09/24 10:44:55;;;;;;;3.95;3.53;;;;;;;;;;5053965;28;20037;-84
2022/09/24 10:47:34;;;;;;;3.83;2.92;;;;;;;;;;5052342;28;20041;-85
2022/09/24 10:50:10;;;;;;;3.88;3.15;;;;;;;;;;5053758;28;20044;-81
2022/09/24 10:52:54;;;;;;;4.80;3.17;;;;;;;;;;5053413;28;20120;-82
2022/09/24 10:55:39;;;;;;;4.90;3.53;;;;;;;;;;5053642;28;20064;-82
2022/09/24 10:58:05;;;;;;;;;;;;;;;;;;5054321;28;20068;-81
2022/09/24 11:00:31;;;;;;;4.22;3.47;;;;;;;;;;5035462;28;19948;-84
2022/09/24 11:02:58;;;;;;;4.38;3.08;;;;;;;;;;5053434;28;20059;-81
2022/09/24 11:05:26;;;;;;;3.30;3.00;;;;;;;;;;5053365;28;20373;-83
2022/09/24 11:07:54;;;;;;;4.97;3.25;;;;;;;;;;5053321;28;20033;-84
2022/09/24 11:10:21;;;;;;;3.00;2.70;;;;;;;;;;5052860;28;20507;-68
2022/09/24 11:12:59;;;;;;;6.75;3.67;;;;;;;;;;5053195;28;20120;-83
2022/09/24 11:15:44;;;;;;;4.57;2.80;;;;;;;;;;5053199;28;20047;-83
2022/09/24 11:18:29;;;;;;;3.17;2.70;;;;;;;;;;5053347;28;20033;-83
2022/09/24 11:20:55;;;;;;;3.67;3.15;;;;;;;;;;5053072;28;20107;-83
2022/09/24 11:23:43;;;;;;;3.75;3.05;;;;;;;;;;5053247;28;20021;-84
2022/09/24 11:26:10;;;;;;;4.60;3.28;;;;;;;;;;5053302;28;20033;-84
2022/09/24 11:28:36;;;;;;;13.25;9.07;;;;;;;;;;5053032;28;20025;-85
2022/09/24 11:31:21;;;;;;;7.63;5.88;;;;;;;;;;5052990;28;20036;-84
2022/09/24 11:34:05;;;;;;;5.47;3.05;;;;;;;;;;5052802;28;20071;-82
2022/09/24 11:36:44;;;;;;;4.45;3.47;;;;;;;;;;5052822;28;20045;-83
2022/09/24 11:39:16;;;;;;;4.05;2.72;;;;;;;;;;5052728;28;20099;-84
2022/09/24 11:42:02;;;;;;;4.53;3.50;;;;;;;;;;5052478;28;20131;-83
2022/09/24 11:44:35;;;;;;;4.85;3.65;;;;;;;;;;5052613;28;20029;-83
2022/09/24 11:47:20;;;;;;;3.83;3.25;;;;;;;;;;5052689;28;20059;-84
2022/09/24 11:49:52;;;;;;;3.20;2.55;;;;;;;;;;5050967;28;20053;-82
2022/09/24 11:52:45;;;;;;;3.83;2.58;;;;;;;;;;5052771;28;20085;-83
2022/09/24 11:55:30;;;;;;;3.85;3.13;;;;;;;;;;5048751;28;20032;-83
2022/09/24 11:57:56;;;;;;;4.93;3.17;;;;;;;;;;5052624;28;20053;-82
2022/09/24 12:00:22;;;;;;;4.60;2.83;;;;;;;;;;5052683;28;20029;-82
2022/09/24 12:02:50;;;;;;;3.85;3.35;;;;;;;;;;5052417;28;20079;-83
2022/09/24 12:05:30;;;;;;;3.67;2.90;;;;;;;;;;5051311;28;20036;-83
2022/09/24 12:08:19;;;;;;;4.18;3.50;;;;;;;;;;5052132;28;20145;-82
2022/09/24 12:10:52;;;;;;;3.97;3.40;;;;;;;;;;5042287;28;20037;-83
2022/09/24 12:13:24;;;;;;;3.30;2.90;;;;;;;;;;5052590;28;20029;-83
2022/09/24 12:15:53;;;;;;;3.17;2.88;;;;;;;;;;5052227;28;20033;-82
2022/09/24 12:18:37;;;;;;;4.82;2.80;;;;;;;;;;5052471;28;20411;-82
2022/09/24 12:21:11;;;;;;;2.80;2.20;;;;;;;;;;5053740;28;20037;-82
2022/09/24 12:23:39;;;;;;;3.13;2.63;;;;;;;;;;5056517;28;20541;-82
2022/09/24 12:26:06;;;;;;;4.05;2.72;;;;;;;;;;5056476;28;20044;-83
2022/09/24 12:34:32;;;;;;;7.68;3.33;;;;;;;;;;5056698;28;20044;-82
2022/09/24 12:36:58;;;;;;;3.97;2.30;;;;;;;;;;5056156;28;20503;-82
2022/09/24 12:39:34;;;;;;;4.53;2.80;;;;;;;;;;5056081;28;20029;-82
2022/09/24 12:42:02;;;;;;;6.38;3.42;;;;;;;;;;5055994;28;20852;-82
2022/09/24 12:44:38;;;;;;;4.53;2.75;;;;;;;;;;5056241;28;20039;-83
2022/09/24 12:47:05;;;;;;;7.05;2.97;;;;;;;;;;5055737;28;20037;-82
2022/09/24 12:49:50;;;;;;;5.30;2.53;;;;;;;;;;5056069;28;20048;-83
2022/09/24 12:52:16;;;;;;;;;;;;;;;;;;5057487;28;20033;-82
2022/09/24 12:54:43;;;;;;;4.57;3.20;;;;;;;;;;5056488;28;19911;-83
2022/09/24 12:57:12;;;;;;;4.75;2.90;;;;;;;;;;5055946;28;20480;-83
2022/09/24 12:59:57;;;;;;;3.55;3.10;;;;;;;;;;5056146;28;20040;-83
2022/09/24 13:02:31;;;;;;;4.20;2.70;;;;;;;;;;5055822;28;20124;-82
2022/09/24 13:05:16;;;;;;;3.28;2.78;;;;;;;;;;5055834;28;20025;-83
2022/09/24 13:07:43;;;;;;;6.80;6.15;;;;;;;;;;5054448;28;20044;-83
2022/09/24 13:10:27;;;;;;;4.53;3.05;;;;;;;;;;5055310;28;20060;-83
2022/09/24 13:12:53;;;;;;;3.03;2.60;;;;;;;;;;5055843;28;20033;-83
2022/09/24 13:15:28;;;;;;;3.08;2.60;;;;;;;;;;5055596;28;20029;-82
2022/09/24 13:18:03;;;;;;;14.32;9.93;;;;;;;;;;5055647;28;20028;-82
2022/09/24 13:20:30;;;;;;;8.68;6.72;;;;;;;;;;5055604;28;20057;-83
2022/09/24 13:22:57;;;;;;;2.70;2.42;;;;;;;;;;5054603;28;20551;-83
2022/09/24 13:25:24;;;;;;;3.05;2.75;;;;;;;;;;5056085;28;20498;-83
2022/09/24 13:28:00;;;;;;;3.08;2.65;;;;;;;;;;5056428;28;20480;-82
2022/09/24 13:30:30;;;;;;;9.07;5.35;;;;;;;;;;5054818;28;20160;-83
2022/09/24 13:32:57;;;;;;;5.65;3.83;;;;;;;;;;5055449;28;20116;-83
2022/09/24 13:35:25;;;;;;;3.25;2.80;;;;;;;;;;5055954;28;20439;-83
2022/09/24 13:38:02;;;;;;;3.10;2.30;;;;;;;;;;5056009;28;20029;-84
2022/09/24 13:40:32;;;;;;;3.90;2.00;;;;;;;;;;5055928;28;20398;-83
2022/09/24 13:43:12;;;;;;;2.22;2.03;;;;;;;;;;5055960;28;20099;-83
2022/09/24 13:45:41;;;;;;;4.43;2.47;;;;;;;;;;5055851;28;20056;-83
2022/09/24 13:48:17;;;;;;;3.50;2.53;;;;;;;;;;5055713;28;20036;-83
2022/09/24 13:50:49;;;;;;;2.22;2.00;;;;;;;;;;5055563;28;20053;-84
2022/09/24 13:53:33;;;;;;;4.95;3.40;;;;;;;;;;5055599;28;20032;-83
2022/09/24 13:56:02;;;;;;;2.90;2.25;;;;;;;;;;5055642;28;20029;-83
2022/09/24 13:58:34;;;;;;;3.15;2.20;;;;;;;;;;5059669;28;20104;-83
2022/09/24 14:01:03;;;;;;;3.20;2.30;;;;;;;;;;5056190;28;20036;-83
2022/09/24 14:03:31;;;;;;;3.15;1.80;;;;;;;;;;5055658;28;20061;-83
2022/09/24 14:05:58;;;;;;;3.03;2.10;;;;;;;;;;5055584;28;20472;-83
2022/09/24 14:08:26;;;;;;;5.10;3.38;;;;;;;;;;5055418;28;20037;-84
2022/09/24 14:10:55;;;;;;;4.85;3.88;;;;;;;;;;5055550;28;20469;-84
2022/09/24 14:13:22;;;;;;;2.65;2.42;;;;;;;;;;5055257;28;20484;-83
2022/09/24 14:15:51;;;;;;;3.28;2.10;;;;;;;;;;5054104;28;20044;-83
2022/09/24 14:18:17;;;;;;;2.67;2.38;;;;;;;;;;5055143;28;20479;-82
2022/09/24 14:20:44;;;;;;;3.53;2.50;;;;;;;;;;5055222;28;20048;-83
2022/09/24 14:23:17;;;;;;;4.25;2.10;;;;;;;;;;5055185;28;20033;-83
2022/09/24 14:25:44;;;;;;;2.40;1.90;;;;;;;;;;5055022;28;20037;-83
2022/09/24 14:28:12;;;;;;;2.63;1.92;;;;;;;;;;5054990;28;20029;-83
2022/09/24 14:30:45;;;;;;;3.13;1.95;;;;;;;;;;5054870;28;20029;-83
2022/09/24 14:33:13;;;;;;;4.23;2.40;;;;;;;;;;5054868;28;20033;-83
2022/09/24 14:35:39;;;;;;;3.17;2.05;;;;;;;;;;5054755;28;20060;-82
2022/09/24 14:38:17;;;;;;;2.95;2.13;;;;;;;;;;5054848;28;20033;-83
2022/09/24 14:40:43;;;;;;;3.33;1.92;;;;;;;;;;5054929;28;20061;-83
2022/09/24 14:43:30;;;;;;;1.95;1.75;;;;;;;;;;5054901;28;20551;-83
2022/09/24 14:46:02;;;;;;;2.90;2.28;;;;;;;;;;5053822;28;20115;-83
2022/09/24 14:48:29;;;;;;;4.20;3.58;;;;;;;;;;5054701;28;20053;-83
2022/09/24 14:50:55;;;;;;;3.22;2.40;;;;;;;;;;5054501;28;20464;-83
2022/09/24 14:53:40;;;;;;;1.85;1.55;;;;;;;;;;5054477;28;20029;-83
2022/09/24 14:56:26;;;;;;;3.28;2.38;;;;;;;;;;5054610;28;20033;-83
2022/09/24 14:58:53;;;;;;;4.13;2.20;;;;;;;;;;5054417;28;20029;-83
2022/09/24 15:01:20;;;;;;;2.80;1.95;;;;;;;;;;5054323;28;20029;-83
2022/09/24 15:03:49;;;;;;;2.83;2.17;;;;;;;;;;5054291;28;20087;-83
2022/09/24 15:06:26;;;;;;;3.88;2.20;;;;;;;;;;5054109;28;20040;-83
2022/09/24 15:09:25;;;;;;;6.97;4.10;;;;;;;;;;5054208;28;20041;-84
2022/09/24 15:11:54;;;;;;;3.20;2.38;;;;;;;;;;5054203;28;20030;-83
2022/09/24 15:14:26;;;;;;;5.25;2.20;;;;;;;;;;5053949;28;20467;-84
2022/09/24 15:16:53;;;;;;;5.40;2.50;;;;;;;;;;5052727;28;20377;-83
2022/09/24 15:19:25;;;;;;;5.32;2.72;;;;;;;;;;5053886;28;20043;-83
2022/09/24 15:21:52;;;;;;;5.60;2.25;;;;;;;;;;5036602;28;20468;-83
2022/09/24 15:24:19;;;;;;;3.28;2.05;;;;;;;;;;5052746;28;20124;-82
2022/09/24 15:26:47;;;;;;;3.45;2.00;;;;;;;;;;5053903;28;20059;-83
2022/09/24 15:29:17;;;;;;;4.10;1.75;;;;;;;;;;5053843;28;20049;-83
2022/09/24 15:31:43;;;;;;;2.20;1.88;;;;;;;;;;5053924;28;20117;-82
2022/09/24 15:34:09;;;;;;;4.47;1.77;;;;;;;;;;5053791;28;20029;-83
2022/09/24 15:36:36;;;;;;;7.15;2.10;;;;;;;;;;5053863;28;20499;-82
2022/09/24 15:39:03;;;;;;;15.73;3.63;;;;;;;;;;5053793;28;20033;-83
2022/09/24 15:41:29;;;;;;;6.75;3.20;;;;;;;;;;5053797;28;20028;-83
2022/09/24 15:43:57;;;;;;;10.10;2.97;;;;;;;;;;5053802;28;20037;-83
2022/09/24 15:46:23;;;;;;;3.90;2.10;;;;;;;;;;5053558;28;20478;-82
2022/09/24 15:48:49;;;;;;;3.58;2.28;;;;;;;;;;5053574;28;20065;-83
2022/09/24 15:51:16;;;;;;;7.03;2.85;;;;;;;;;;5053335;28;20511;-83
2022/09/24 15:53:43;;;;;;;7.07;3.47;;;;;;;;;;5053543;28;20131;-83
2022/09/24 15:56:09;;;;;;;7.85;5.30;;;;;;;;;;5053062;28;20492;-83
2022/09/24 15:58:35;;;;;;;13.98;5.88;;;;;;;;;;5053514;28;20183;-83
2022/09/24 16:01:01;;;;;;;4.80;2.83;;;;;;;;;;5053436;28;20028;-83
2022/09/24 16:03:28;;;;;;;4.95;2.53;;;;;;;;;;5053564;28;20480;-83
2022/09/24 16:05:54;;;;;;;4.75;2.92;;;;;;;;;;5053374;28;20106;-83
2022/09/24 16:08:20;;;;;;;5.35;3.63;;;;;;;;;;5053371;28;20108;-83
2022/09/24 16:10:47;;;;;;;4.68;3.75;;;;;;;;;;5053192;28;20104;-83
2022/09/24 16:13:13;;;;;;;4.72;3.40;;;;;;;;;;5051883;28;20041;-83
2022/09/24 16:15:39;;;;;;;3.85;3.40;;;;;;;;;;5052819;28;20037;-83
2022/09/24 16:18:06;;;;;;;7.47;5.78;;;;;;;;;;5052987;28;20039;-83
2022/09/24 16:20:33;;;;;;;17.45;11.38;;;;;;;;;;5053009;28;20029;-83
2022/09/24 16:22:59;;;;;;;17.63;13.07;;;;;;;;;;5051638;28;20427;-83
2022/09/24 16:25:26;;;;;;;17.70;13.70;;;;;;;;;;5052971;28;20469;-83
2022/09/24 16:27:52;;;;;;;12.75;10.20;;;;;;;;;;5052848;28;20029;-82
2022/09/24 16:30:18;;;;;;;10.43;8.60;;;;;;;;;;5052958;28;20044;-82
2022/09/24 16:32:45;;;;;;;19.73;12.80;;;;;;;;;;5052896;28;20033;-83
2022/09/24 16:35:12;;;;;;;23.63;17.83;;;;;;;;;;5052822;28;20110;-83
2022/09/24 16:37:38;;;;;;;30.38;21.48;;;;;;;;;;5052972;28;20032;-83
2022/09/24 16:40:04;;;;;;;13.70;9.50;;;;;;;;;;5052739;28;20036;-83
2022/09/24 16:42:30;;;;;;;16.25;11.40;;;;;;;;;;5052696;28;20029;-83
2022/09/24 16:44:56;;;;;;;12.00;5.85;;;;;;;;;;5052750;28;20053;-83
2022/09/24 16:47:23;;;;;;;8.75;5.88;;;;;;;;;;5052596;28;20037;-83
2022/09/24 16:49:50;;;;;;;10.45;6.57;;;;;;;;;;5052509;28;20045;-83
2022/09/24 16:52:16;;;;;;;17.55;12.35;;;;;;;;;;5052739;28;20124;-83
2022/09/24 16:54:42;;;;;;;22.35;18.60;;;;;;;;;;5052664;28;20029;-83
2022/09/24 16:57:08;;;;;;;25.50;20.55;;;;;;;;;;5052468;28;20430;-83
2022/09/24 16:59:34;;;;;;;66.80;49.05;;;;;;;;;;5052705;28;20036;-83
2022/09/24 17:02:01;;;;;;;32.50;24.42;;;;;;;;;;5052497;28;20032;-83
2022/09/24 17:04:27;;;;;;;27.50;19.15;;;;;;;;;;5051365;28;20108;-83
2022/09/24 17:06:56;;;;;;;32.53;24.75;;;;;;;;;;5034870;28;20048;-83
2022/09/24 17:12:09;;;;;;;20.08;14.40;;;;;;;;;;5056360;28;20108;-83
2022/09/24 17:14:36;;;;;;;12.70;9.70;;;;;;;;;;5056406;28;20472;-83
2022/09/24 17:17:03;;;;;;;13.25;8.93;;;;;;;;;;5056260;28;20037;-83
2022/09/24 17:19:29;;;;;;;11.40;8.10;;;;;;;;;;5055160;28;20032;-83
2022/09/24 17:21:55;;;;;;;8.50;6.93;;;;;;;;;;5056195;28;20029;-83
2022/09/24 17:24:21;;;;;;;11.05;6.88;;;;;;;;;;5054705;28;20033;-83
2022/09/24 17:26:47;;;;;;;14.27;7.18;;;;;;;;;;5056109;28;20040;-83
2022/09/24 17:29:13;;;;;;;13.48;6.32;;;;;;;;;;5055004;28;20400;-82
2022/09/24 17:31:40;;;;;;;7.70;5.43;;;;;;;;;;5056028;28;20059;-83
2022/09/24 17:34:09;;;;;;;6.28;4.45;;;;;;;;;;5056001;28;20031;-83
2022/09/24 17:36:36;;;;;;;7.03;4.45;;;;;;;;;;5055955;28;20112;-83
2022/09/24 17:39:02;;;;;;;5.45;4.60;;;;;;;;;;5055874;28;20041;-82
2022/09/24 17:41:29;;;;;;;8.57;5.30;;;;;;;;;;5056085;28;20060;-83
2022/09/24 17:46:40;;;;;;;15.93;9.20;;;;;;;;;;5055964;28;20498;-83
2022/09/24 17:49:06;;;;;;;15.55;9.63;;;;;;;;;;5055455;28;20029;-83
2022/09/24 17:51:35;;;;;;;14.85;10.00;;;;;;;;;;5054492;28;20454;-83
2022/09/24 17:54:06;;;;;;;21.80;14.10;;;;;;;;;;5055581;28;20108;-83
2022/09/24 17:56:38;;;;;;;13.65;9.13;;;;;;;;;;5055580;28;20036;-83
2022/09/24 17:59:07;;;;;;;11.48;7.88;;;;;;;;;;5055597;28;20040;-83
2022/09/24 18:01:35;;;;;;;8.27;5.35;;;;;;;;;;5055564;28;20069;-83
2022/09/24 18:04:02;;;;;;;8.88;5.88;;;;;;;;;;5055515;28;20392;-83
2022/09/24 18:06:30;;;;;;;7.95;5.05;;;;;;;;;;5055478;28;20037;-84
2022/09/24 18:08:57;;;;;;;8.68;4.78;;;;;;;;;;5055267;28;20025;-84
2022/09/24 18:11:25;;;;;;;6.57;4.20;;;;;;;;;;5055465;28;20499;-83
2022/09/24 18:13:55;;;;;;;7.13;5.40;;;;;;;;;;5055329;28;20112;-83
2022/09/24 18:16:22;;;;;;;9.10;6.10;;;;;;;;;;5055316;28;20048;-83
2022/09/24 18:18:48;;;;;;;12.07;8.38;;;;;;;;;;5054909;28;20035;-83
2022/09/24 18:21:19;;;;;;;11.73;8.05;;;;;;;;;;5055297;28;20069;-83
2022/09/24 18:23:48;;;;;;;15.32;11.60;;;;;;;;;;5053821;28;20051;-83
2022/09/24 18:26:21;;;;;;;15.15;9.27;;;;;;;;;;5054934;28;20047;-83
2022/09/24 18:29:14;;;;;;;8.27;5.82;;;;;;;;;;5054976;28;20083;-84
2022/09/24 18:31:44;;;;;;;12.15;7.78;;;;;;;;;;5054772;28;20116;-83
2022/09/24 18:34:11;;;;;;;8.48;6.60;;;;;;;;;;5054770;28;20086;-83
2022/09/24 18:36:44;;;;;;;10.82;7.45;;;;;;;;;;5055364;28;20033;-85
2022/09/24 18:43:12;;;;;;;11.18;7.07;;;;;;;;;;5032806;28;20409;-82
2022/09/24 18:46:07;;;;;;;11.80;6.47;;;;;;;;;;5054659;28;20033;-83
2022/09/24 18:48:37;;;;;;;7.10;5.10;;;;;;;;;;5024248;28;20037;-83
2022/09/24 18:51:04;;;;;;;5.28;4.20;;;;;;;;;;5053087;28;20044;-83
2022/09/24 18:53:30;;;;;;;9.60;5.25;;;;;;;;;;5053373;28;20033;-82
2022/09/24 18:55:57;;;;;;;8.27;5.53;;;;;;;;;;5054530;28;20056;-83
2022/09/24 18:58:24;;;;;;;11.80;8.27;;;;;;;;;;5054517;28;20035;-84
2022/09/24 19:00:50;;;;;;;10.23;8.00;;;;;;;;;;5053175;28;20119;-82
2022/09/24 19:03:35;;;;;;;10.77;7.00;;;;;;;;;;5054270;28;20108;-83
2022/09/24 19:06:03;;;;;;;8.38;5.40;;;;;;;;;;5054188;28;20056;-82
2022/09/24 19:08:30;;;;;;;9.32;6.10;;;;;;;;;;5054223;28;20044;-83
2022/09/24 19:11:00;;;;;;;6.88;4.70;;;;;;;;;;5054253;28;20075;-83
2022/09/24 19:16:55;;;;;;;5.20;4.40;;;;;;;;;;5031960;28;20033;-83
2022/09/24 19:23:00;;;;;;;6.72;4.25;;;;;;;;;;4947129;29;20170;-83
2022/09/24 19:25:31;;;;;;;6.55;5.05;;;;;;;;;;5030768;28;20030;-82
2022/09/24 19:28:18;;;;;;;13.07;9.70;;;;;;;;;;5031685;28;20038;-82